Terminal Aerodrome Forecast
Issued by NWS Shreveport, LA

Home | Current Version | Previous Version | Text Only | Print | Product List | Glossary On
Versions: 1 2 3 4 5 6 7 8 9 10 11 12 13 14 15 16 17 18 19 20 21 22 23 24
000
FTUS44 KSHV 242100 AAA
TAFLFK
TAF AMD
KLFK 242145Z 2422/2518 22007KT P6SM OVC035
     FM242300 25008KT P6SM FEW040
     FM250200 VRB05KT P6SM SKC
     FM251500 06009KT P6SM SKC=

USA.gov is the U.S. government's official web portal to all federal, state and local government web resources and services.